Terminal Aerodrome Forecast
Issued by NWS

Home | Current Version | Previous Version | Text Only | Print | Product List | Glossary Off
Versions: 1 2 3 4 5 6 7 8 9 10 11 12 13 14 15 16 17 18 19 20 21 22

000
FTUS45 KGGW 201700
TAFOLF
TAF
KOLF 201727Z 2018/2118 30009KT P6SM -SHRA SCT060 OVC090
     FM210100 00000KT P6SM FEW060 SCT250
     FM211000 07004KT 3SM BR SCT005
     FM211500 06008KT 5SM -RA SCT020 OVC090=

USA.gov is the U.S. government's official web portal to all federal, state and local government web resources and services.